sensor_id;sensor_type;location;lat;lon;timestamp;P1;durP1;ratioP1;P2;durP2;ratioP2
76631;SDS011;65526;48.578;-4.520;2023-04-03T00:00:57;10.02;;;5.80;;
76631;SDS011;65526;48.578;-4.520;2023-04-03T00:03:24;10.13;;;5.80;;
76631;SDS011;65526;48.578;-4.520;2023-04-03T00:05:50;11.27;;;5.40;;
76631;SDS011;65526;48.578;-4.520;2023-04-03T00:08:16;7.30;;;4.75;;
76631;SDS011;65526;48.578;-4.520;2023-04-03T00:10:43;9.98;;;5.45;;
76631;SDS011;65526;48.578;-4.520;2023-04-03T00:13:09;9.95;;;4.82;;
76631;SDS011;65526;48.578;-4.520;2023-04-03T00:15:36;8.77;;;5.32;;
76631;SDS011;65526;48.578;-4.520;2023-04-03T00:18:04;8.45;;;5.00;;
76631;SDS011;65526;48.578;-4.520;2023-04-03T00:20:30;7.40;;;5.20;;
76631;SDS011;65526;48.578;-4.520;2023-04-03T00:22:57;8.45;;;4.88;;
76631;SDS011;65526;48.578;-4.520;2023-04-03T00:25:24;13.25;;;5.43;;
76631;SDS011;65526;48.578;-4.520;2023-04-03T00:27:50;10.48;;;5.03;;
76631;SDS011;65526;48.578;-4.520;2023-04-03T00:30:17;13.43;;;6.05;;
76631;SDS011;65526;48.578;-4.520;2023-04-03T00:32:47;8.25;;;5.05;;
76631;SDS011;65526;48.578;-4.520;2023-04-03T00:35:14;10.38;;;6.50;;
76631;SDS011;65526;48.578;-4.520;2023-04-03T00:37:43;8.77;;;5.50;;
76631;SDS011;65526;48.578;-4.520;2023-04-03T00:40:11;11.10;;;4.82;;
76631;SDS011;65526;48.578;-4.520;2023-04-03T00:42:40;8.65;;;4.95;;
76631;SDS011;65526;48.578;-4.520;2023-04-03T00:45:22;10.20;;;5.00;;
76631;SDS011;65526;48.578;-4.520;2023-04-03T00:47:51;8.57;;;4.68;;
76631;SDS011;65526;48.578;-4.520;2023-04-03T00:50:18;9.90;;;5.35;;
76631;SDS011;65526;48.578;-4.520;2023-04-03T00:52:45;10.73;;;4.75;;
76631;SDS011;65526;48.578;-4.520;2023-04-03T00:55:13;7.93;;;4.88;;
76631;SDS011;65526;48.578;-4.520;2023-04-03T00:57:41;10.40;;;5.38;;
76631;SDS011;65526;48.578;-4.520;2023-04-03T01:00:09;10.95;;;4.70;;
76631;SDS011;65526;48.578;-4.520;2023-04-03T01:02:38;13.80;;;5.20;;
76631;SDS011;65526;48.578;-4.520;2023-04-03T01:05:08;8.45;;;5.15;;
76631;SDS011;65526;48.578;-4.520;2023-04-03T01:07:36;10.02;;;5.35;;
76631;SDS011;65526;48.578;-4.520;2023-04-03T01:10:04;8.95;;;5.07;;
76631;SDS011;65526;48.578;-4.520;2023-04-03T01:12:38;7.28;;;4.90;;
76631;SDS011;65526;48.578;-4.520;2023-04-03T01:15:07;8.05;;;4.35;;
76631;SDS011;65526;48.578;-4.520;2023-04-03T01:17:38;7.07;;;4.05;;
76631;SDS011;65526;48.578;-4.520;2023-04-03T01:20:16;5.07;;;3.22;;
76631;SDS011;65526;48.578;-4.520;2023-04-03T01:25:34;7.10;;;3.35;;
76631;SDS011;65526;48.578;-4.520;2023-04-03T01:28:05;5.72;;;3.70;;
76631;SDS011;65526;48.578;-4.520;2023-04-03T01:30:40;8.10;;;3.85;;
76631;SDS011;65526;48.578;-4.520;2023-04-03T01:33:11;6.68;;;3.30;;
76631;SDS011;65526;48.578;-4.520;2023-04-03T01:35:38;7.25;;;3.78;;
76631;SDS011;65526;48.578;-4.520;2023-04-03T01:38:05;7.65;;;4.50;;
76631;SDS011;65526;48.578;-4.520;2023-04-03T01:40:32;7.07;;;3.55;;
76631;SDS011;65526;48.578;-4.520;2023-04-03T01:42:59;8.10;;;3.42;;
76631;SDS011;65526;48.578;-4.520;2023-04-03T01:45:25;7.93;;;4.22;;
76631;SDS011;65526;48.578;-4.520;2023-04-03T01:47:52;10.32;;;4.20;;
76631;SDS011;65526;48.578;-4.520;2023-04-03T01:50:18;7.45;;;3.67;;
76631;SDS011;65526;48.578;-4.520;2023-04-03T01:52:45;11.65;;;3.92;;
76631;SDS011;65526;48.578;-4.520;2023-04-03T01:55:11;8.43;;;4.15;;
76631;SDS011;65526;48.578;-4.520;2023-04-03T01:57:38;6.53;;;4.10;;
76631;SDS011;65526;48.578;-4.520;2023-04-03T02:00:05;10.50;;;4.47;;
76631;SDS011;65526;48.578;-4.520;2023-04-03T02:02:38;6.10;;;3.95;;
76631;SDS011;65526;48.578;-4.520;2023-04-03T02:05:05;8.40;;;4.35;;
76631;SDS011;65526;48.578;-4.520;2023-04-03T02:07:32;9.10;;;4.45;;
76631;SDS011;65526;48.578;-4.520;2023-04-03T02:09:59;8.02;;;3.72;;
76631;SDS011;65526;48.578;-4.520;2023-04-03T02:12:25;6.80;;;3.63;;
76631;SDS011;65526;48.578;-4.520;2023-04-03T02:14:52;7.40;;;3.60;;
76631;SDS011;65526;48.578;-4.520;2023-04-03T02:17:19;6.60;;;3.75;;
76631;SDS011;65526;48.578;-4.520;2023-04-03T02:19:45;5.45;;;3.42;;
76631;SDS011;65526;48.578;-4.520;2023-04-03T02:22:12;9.60;;;3.78;;
76631;SDS011;65526;48.578;-4.520;2023-04-03T02:24:38;9.85;;;3.70;;
76631;SDS011;65526;48.578;-4.520;2023-04-03T02:27:06;7.88;;;3.85;;
76631;SDS011;65526;48.578;-4.520;2023-04-03T02:29:32;7.47;;;3.22;;
76631;SDS011;65526;48.578;-4.520;2023-04-03T02:31:58;7.72;;;4.50;;
76631;SDS011;65526;48.578;-4.520;2023-04-03T02:34:26;9.48;;;4.07;;
76631;SDS011;65526;48.578;-4.520;2023-04-03T02:36:53;8.93;;;4.38;;
76631;SDS011;65526;48.578;-4.520;2023-04-03T02:39:19;5.95;;;4.00;;
76631;SDS011;65526;48.578;-4.520;2023-04-03T02:41:47;7.68;;;3.45;;
76631;SDS011;65526;48.578;-4.520;2023-04-03T02:44:18;10.07;;;4.30;;
76631;SDS011;65526;48.578;-4.520;2023-04-03T02:46:45;11.18;;;4.72;;
76631;SDS011;65526;48.578;-4.520;2023-04-03T02:49:12;8.85;;;3.83;;
76631;SDS011;65526;48.578;-4.520;2023-04-03T02:51:38;8.68;;;4.38;;
76631;SDS011;65526;48.578;-4.520;2023-04-03T02:54:05;5.60;;;3.38;;
76631;SDS011;65526;48.578;-4.520;2023-04-03T02:56:34;9.00;;;4.22;;
76631;SDS011;65526;48.578;-4.520;2023-04-03T02:59:00;6.47;;;3.80;;
76631;SDS011;65526;48.578;-4.520;2023-04-03T03:01:28;9.13;;;4.07;;
76631;SDS011;65526;48.578;-4.520;2023-04-03T03:03:57;7.35;;;3.58;;
76631;SDS011;65526;48.578;-4.520;2023-04-03T03:06:25;9.05;;;3.72;;
76631;SDS011;65526;48.578;-4.520;2023-04-03T03:08:52;8.00;;;4.13;;
76631;SDS011;65526;48.578;-4.520;2023-04-03T03:11:19;7.90;;;3.70;;
76631;SDS011;65526;48.578;-4.520;2023-04-03T03:13:45;10.02;;;4.03;;
76631;SDS011;65526;48.578;-4.520;2023-04-03T03:16:12;4.70;;;3.60;;
76631;SDS011;65526;48.578;-4.520;2023-04-03T03:18:38;8.20;;;3.58;;
76631;SDS011;65526;48.578;-4.520;2023-04-03T03:21:05;7.05;;;3.90;;
76631;SDS011;65526;48.578;-4.520;2023-04-03T03:23:32;8.85;;;4.22;;
76631;SDS011;65526;48.578;-4.520;2023-04-03T03:26:06;10.07;;;4.93;;
76631;SDS011;65526;48.578;-4.520;2023-04-03T03:28:34;6.88;;;3.60;;
76631;SDS011;65526;48.578;-4.520;2023-04-03T03:31:02;10.85;;;4.30;;
76631;SDS011;65526;48.578;-4.520;2023-04-03T03:33:31;9.40;;;4.13;;
76631;SDS011;65526;48.578;-4.520;2023-04-03T03:35:59;6.80;;;4.03;;
76631;SDS011;65526;48.578;-4.520;2023-04-03T03:38:25;8.10;;;4.38;;
76631;SDS011;65526;48.578;-4.520;2023-04-03T03:40:53;8.45;;;4.32;;
76631;SDS011;65526;48.578;-4.520;2023-04-03T03:43:21;9.23;;;4.15;;
76631;SDS011;65526;48.578;-4.520;2023-04-03T03:45:52;6.97;;;4.47;;
76631;SDS011;65526;48.578;-4.520;2023-04-03T03:48:19;7.82;;;4.25;;
76631;SDS011;65526;48.578;-4.520;2023-04-03T03:50:47;8.18;;;4.10;;
76631;SDS011;65526;48.578;-4.520;2023-04-03T03:53:14;12.25;;;4.20;;
76631;SDS011;65526;48.578;-4.520;2023-04-03T03:55:41;8.75;;;4.70;;
76631;SDS011;65526;48.578;-4.520;2023-04-03T03:58:08;7.97;;;4.57;;
76631;SDS011;65526;48.578;-4.520;2023-04-03T04:00:36;9.00;;;4.70;;
76631;SDS011;65526;48.578;-4.520;2023-04-03T04:03:03;9.75;;;4.18;;
76631;SDS011;65526;48.578;-4.520;2023-04-03T04:05:31;8.50;;;4.35;;
76631;SDS011;65526;48.578;-4.520;2023-04-03T04:07:59;7.75;;;4.65;;
76631;SDS011;65526;48.578;-4.520;2023-04-03T04:10:26;9.27;;;4.03;;
76631;SDS011;65526;48.578;-4.520;2023-04-03T04:12:53;9.13;;;3.70;;
76631;SDS011;65526;48.578;-4.520;2023-04-03T04:17:50;11.98;;;3.55;;
76631;SDS011;65526;48.578;-4.520;2023-04-03T04:20:16;10.30;;;4.22;;
76631;SDS011;65526;48.578;-4.520;2023-04-03T04:22:43;6.40;;;3.65;;
76631;SDS011;65526;48.578;-4.520;2023-04-03T04:25:09;8.45;;;4.18;;
76631;SDS011;65526;48.578;-4.520;2023-04-03T04:27:38;9.00;;;4.53;;
76631;SDS011;65526;48.578;-4.520;2023-04-03T04:30:05;11.00;;;5.20;;
76631;SDS011;65526;48.578;-4.520;2023-04-03T04:32:33;7.88;;;4.30;;
76631;SDS011;65526;48.578;-4.520;2023-04-03T04:35:00;9.40;;;4.70;;
76631;SDS011;65526;48.578;-4.520;2023-04-03T04:37:28;7.13;;;4.47;;
76631;SDS011;65526;48.578;-4.520;2023-04-03T04:39:55;9.95;;;4.50;;
76631;SDS011;65526;48.578;-4.520;2023-04-03T04:42:21;10.02;;;5.00;;
76631;SDS011;65526;48.578;-4.520;2023-04-03T04:44:48;10.07;;;4.32;;
76631;SDS011;65526;48.578;-4.520;2023-04-03T04:47:15;9.90;;;4.78;;
76631;SDS011;65526;48.578;-4.520;2023-04-03T04:49:42;6.38;;;3.83;;
76631;SDS011;65526;48.578;-4.520;2023-04-03T04:52:10;11.45;;;4.35;;
76631;SDS011;65526;48.578;-4.520;2023-04-03T04:54:38;13.48;;;4.70;;
76631;SDS011;65526;48.578;-4.520;2023-04-03T04:57:05;9.60;;;4.00;;
76631;SDS011;65526;48.578;-4.520;2023-04-03T04:59:32;7.75;;;3.55;;
76631;SDS011;65526;48.578;-4.520;2023-04-03T05:01:58;7.57;;;4.13;;
76631;SDS011;65526;48.578;-4.520;2023-04-03T05:04:26;8.07;;;3.67;;
76631;SDS011;65526;48.578;-4.520;2023-04-03T05:06:59;4.93;;;3.35;;
76631;SDS011;65526;48.578;-4.520;2023-04-03T05:09:28;7.82;;;3.65;;
76631;SDS011;65526;48.578;-4.520;2023-04-03T05:11:55;9.93;;;3.10;;
76631;SDS011;65526;48.578;-4.520;2023-04-03T05:14:25;7.00;;;3.15;;
76631;SDS011;65526;48.578;-4.520;2023-04-03T05:16:52;7.30;;;3.28;;
76631;SDS011;65526;48.578;-4.520;2023-04-03T05:19:21;6.18;;;3.10;;
76631;SDS011;65526;48.578;-4.520;2023-04-03T05:21:48;5.85;;;3.08;;
76631;SDS011;65526;48.578;-4.520;2023-04-03T05:24:16;5.95;;;3.10;;
76631;SDS011;65526;48.578;-4.520;2023-04-03T05:26:43;7.07;;;3.20;;
76631;SDS011;65526;48.578;-4.520;2023-04-03T05:29:11;7.00;;;3.45;;
76631;SDS011;65526;48.578;-4.520;2023-04-03T05:31:37;7.07;;;3.67;;
76631;SDS011;65526;48.578;-4.520;2023-04-03T05:34:05;9.07;;;4.03;;
76631;SDS011;65526;48.578;-4.520;2023-04-03T05:36:35;7.55;;;4.07;;
76631;SDS011;65526;48.578;-4.520;2023-04-03T05:39:05;8.85;;;3.35;;
76631;SDS011;65526;48.578;-4.520;2023-04-03T05:41:34;6.68;;;2.95;;
76631;SDS011;65526;48.578;-4.520;2023-04-03T05:44:01;8.57;;;3.00;;
76631;SDS011;65526;48.578;-4.520;2023-04-03T05:46:28;9.45;;;3.42;;
76631;SDS011;65526;48.578;-4.520;2023-04-03T05:48:56;6.68;;;3.33;;
76631;SDS011;65526;48.578;-4.520;2023-04-03T05:54:01;5.07;;;2.97;;
76631;SDS011;65526;48.578;-4.520;2023-04-03T05:56:35;7.53;;;3.13;;
76631;SDS011;65526;48.578;-4.520;2023-04-03T05:59:01;8.25;;;2.85;;
76631;SDS011;65526;48.578;-4.520;2023-04-03T06:01:28;8.27;;;3.08;;
76631;SDS011;65526;48.578;-4.520;2023-04-03T06:03:56;4.75;;;2.80;;
76631;SDS011;65526;48.578;-4.520;2023-04-03T06:06:24;5.70;;;2.88;;
76631;SDS011;65526;48.578;-4.520;2023-04-03T06:08:51;6.75;;;2.97;;
76631;SDS011;65526;48.578;-4.520;2023-04-03T06:11:17;7.43;;;3.15;;
76631;SDS011;65526;48.578;-4.520;2023-04-03T06:13:44;7.63;;;3.05;;
76631;SDS011;65526;48.578;-4.520;2023-04-03T06:16:18;6.10;;;3.03;;
76631;SDS011;65526;48.578;-4.520;2023-04-03T06:18:45;7.47;;;3.25;;
76631;SDS011;65526;48.578;-4.520;2023-04-03T06:21:11;6.80;;;3.50;;
76631;SDS011;65526;48.578;-4.520;2023-04-03T06:23:38;7.00;;;3.13;;
76631;SDS011;65526;48.578;-4.520;2023-04-03T06:26:05;7.60;;;2.78;;
76631;SDS011;65526;48.578;-4.520;2023-04-03T06:28:31;8.70;;;3.13;;
76631;SDS011;65526;48.578;-4.520;2023-04-03T06:30:58;10.48;;;2.67;;
76631;SDS011;65526;48.578;-4.520;2023-04-03T06:33:24;9.43;;;3.35;;
76631;SDS011;65526;48.578;-4.520;2023-04-03T06:35:55;6.72;;;3.45;;
76631;SDS011;65526;48.578;-4.520;2023-04-03T06:38:25;7.40;;;3.17;;
76631;SDS011;65526;48.578;-4.520;2023-04-03T06:40:51;8.10;;;3.42;;
76631;SDS011;65526;48.578;-4.520;2023-04-03T06:43:18;6.63;;;3.30;;
76631;SDS011;65526;48.578;-4.520;2023-04-03T06:45:44;7.85;;;3.08;;
76631;SDS011;65526;48.578;-4.520;2023-04-03T06:48:12;6.00;;;3.42;;
76631;SDS011;65526;48.578;-4.520;2023-04-03T06:50:38;6.47;;;3.13;;
76631;SDS011;65526;48.578;-4.520;2023-04-03T06:53:05;7.45;;;3.38;;
76631;SDS011;65526;48.578;-4.520;2023-04-03T06:55:33;5.47;;;3.15;;
76631;SDS011;65526;48.578;-4.520;2023-04-03T06:57:59;6.57;;;3.42;;
76631;SDS011;65526;48.578;-4.520;2023-04-03T07:00:26;5.55;;;3.17;;
76631;SDS011;65526;48.578;-4.520;2023-04-03T07:02:52;7.80;;;3.47;;
76631;SDS011;65526;48.578;-4.520;2023-04-03T07:05:19;10.60;;;3.05;;
76631;SDS011;65526;48.578;-4.520;2023-04-03T07:07:46;7.43;;;2.92;;
76631;SDS011;65526;48.578;-4.520;2023-04-03T07:10:12;7.07;;;3.03;;
76631;SDS011;65526;48.578;-4.520;2023-04-03T07:12:38;7.60;;;3.10;;
76631;SDS011;65526;48.578;-4.520;2023-04-03T07:15:05;7.10;;;3.00;;
76631;SDS011;65526;48.578;-4.520;2023-04-03T07:17:32;7.90;;;3.28;;
76631;SDS011;65526;48.578;-4.520;2023-04-03T07:19:59;7.53;;;3.17;;
76631;SDS011;65526;48.578;-4.520;2023-04-03T07:22:30;6.72;;;3.13;;
76631;SDS011;65526;48.578;-4.520;2023-04-03T07:24:57;4.57;;;2.88;;
76631;SDS011;65526;48.578;-4.520;2023-04-03T07:27:25;6.25;;;3.00;;
76631;SDS011;65526;48.578;-4.520;2023-04-03T07:29:51;9.15;;;3.53;;
76631;SDS011;65526;48.578;-4.520;2023-04-03T07:32:17;6.43;;;3.35;;
76631;SDS011;65526;48.578;-4.520;2023-04-03T07:34:44;5.75;;;3.33;;
76631;SDS011;65526;48.578;-4.520;2023-04-03T07:37:10;7.05;;;3.25;;
76631;SDS011;65526;48.578;-4.520;2023-04-03T07:39:37;7.00;;;3.15;;
76631;SDS011;65526;48.578;-4.520;2023-04-03T07:42:03;6.45;;;2.58;;
76631;SDS011;65526;48.578;-4.520;2023-04-03T07:44:29;11.20;;;3.25;;
76631;SDS011;65526;48.578;-4.520;2023-04-03T07:46:56;7.70;;;3.55;;
76631;SDS011;65526;48.578;-4.520;2023-04-03T07:49:23;9.43;;;3.08;;
76631;SDS011;65526;48.578;-4.520;2023-04-03T07:51:50;9.68;;;4.13;;
76631;SDS011;65526;48.578;-4.520;2023-04-03T07:54:17;8.43;;;2.90;;
76631;SDS011;65526;48.578;-4.520;2023-04-03T07:56:43;10.60;;;3.15;;
76631;SDS011;65526;48.578;-4.520;2023-04-03T07:59:10;11.45;;;3.03;;
76631;SDS011;65526;48.578;-4.520;2023-04-03T08:01:37;6.80;;;3.15;;
76631;SDS011;65526;48.578;-4.520;2023-04-03T08:04:03;9.50;;;3.10;;
76631;SDS011;65526;48.578;-4.520;2023-04-03T08:06:30;10.20;;;2.70;;
76631;SDS011;65526;48.578;-4.520;2023-04-03T08:08:58;11.82;;;2.78;;
76631;SDS011;65526;48.578;-4.520;2023-04-03T08:11:25;12.00;;;2.53;;
76631;SDS011;65526;48.578;-4.520;2023-04-03T08:13:52;10.25;;;3.13;;
76631;SDS011;65526;48.578;-4.520;2023-04-03T08:16:20;7.78;;;2.40;;
76631;SDS011;65526;48.578;-4.520;2023-04-03T08:18:48;11.63;;;2.55;;
76631;SDS011;65526;48.578;-4.520;2023-04-03T08:21:14;8.20;;;2.88;;
76631;SDS011;65526;48.578;-4.520;2023-04-03T08:23:41;13.32;;;2.63;;
76631;SDS011;65526;48.578;-4.520;2023-04-03T08:26:09;8.50;;;2.05;;
76631;SDS011;65526;48.578;-4.520;2023-04-03T08:28:40;11.60;;;2.67;;
76631;SDS011;65526;48.578;-4.520;2023-04-03T08:31:09;7.22;;;2.20;;
76631;SDS011;65526;48.578;-4.520;2023-04-03T08:33:38;5.72;;;2.03;;
76631;SDS011;65526;48.578;-4.520;2023-04-03T08:36:05;11.07;;;2.38;;
76631;SDS011;65526;48.578;-4.520;2023-04-03T08:38:41;6.72;;;2.35;;
76631;SDS011;65526;48.578;-4.520;2023-04-03T08:44:15;13.40;;;2.30;;
76631;SDS011;65526;48.578;-4.520;2023-04-03T08:47:10;12.35;;;2.13;;
76631;SDS011;65526;48.578;-4.520;2023-04-03T08:52:05;11.82;;;2.60;;
76631;SDS011;65526;48.578;-4.520;2023-04-03T08:54:37;10.75;;;2.63;;
76631;SDS011;65526;48.578;-4.520;2023-04-03T08:57:15;7.55;;;2.22;;
76631;SDS011;65526;48.578;-4.520;2023-04-03T08:59:43;6.88;;;2.35;;
76631;SDS011;65526;48.578;-4.520;2023-04-03T09:04:58;11.50;;;2.10;;
76631;SDS011;65526;48.578;-4.520;2023-04-03T09:07:59;8.02;;;2.13;;
76631;SDS011;65526;48.578;-4.520;2023-04-03T09:10:37;8.90;;;2.10;;
76631;SDS011;65526;48.578;-4.520;2023-04-03T09:13:08;7.65;;;2.50;;
76631;SDS011;65526;48.578;-4.520;2023-04-03T09:15:54;10.02;;;2.20;;
76631;SDS011;65526;48.578;-4.520;2023-04-03T09:18:36;9.55;;;1.95;;
76631;SDS011;65526;48.578;-4.520;2023-04-03T09:21:24;8.27;;;2.10;;
76631;SDS011;65526;48.578;-4.520;2023-04-03T09:24:00;3.88;;;1.63;;
76631;SDS011;65526;48.578;-4.520;2023-04-03T09:29:00;9.75;;;2.85;;
76631;SDS011;65526;48.578;-4.520;2023-04-03T09:31:38;7.78;;;1.33;;
76631;SDS011;65526;48.578;-4.520;2023-04-03T09:34:14;11.32;;;1.80;;
76631;SDS011;65526;48.578;-4.520;2023-04-03T09:36:57;5.88;;;1.77;;
76631;SDS011;65526;48.578;-4.520;2023-04-03T09:39:26;11.88;;;1.65;;
76631;SDS011;65526;48.578;-4.520;2023-04-03T09:44:31;10.15;;;2.22;;
76631;SDS011;65526;48.578;-4.520;2023-04-03T09:52:46;13.23;;;2.05;;
76631;SDS011;65526;48.578;-4.520;2023-04-03T09:55:20;6.90;;;1.40;;
76631;SDS011;65526;48.578;-4.520;2023-04-03T09:57:57;5.63;;;1.50;;
76631;SDS011;65526;48.578;-4.520;2023-04-03T10:00:39;7.40;;;2.08;;
76631;SDS011;65526;48.578;-4.520;2023-04-03T10:03:09;7.75;;;1.50;;
76631;SDS011;65526;48.578;-4.520;2023-04-03T10:05:51;5.60;;;1.33;;
76631;SDS011;65526;48.578;-4.520;2023-04-03T10:08:25;12.70;;;2.10;;
76631;SDS011;65526;48.578;-4.520;2023-04-03T10:13:36;11.00;;;2.35;;
76631;SDS011;65526;48.578;-4.520;2023-04-03T10:16:14;9.98;;;1.70;;
76631;SDS011;65526;48.578;-4.520;2023-04-03T10:21:57;9.15;;;2.05;;
76631;SDS011;65526;48.578;-4.520;2023-04-03T10:24:20;5.88;;;1.88;;
76631;SDS011;65526;48.578;-4.520;2023-04-03T10:35:13;9.57;;;1.65;;
76631;SDS011;65526;48.578;-4.520;2023-04-03T10:38:03;11.38;;;1.98;;
76631;SDS011;65526;48.578;-4.520;2023-04-03T10:46:11;6.50;;;1.70;;
76631;SDS011;65526;48.578;-4.520;2023-04-03T10:48:49;7.32;;;1.80;;
76631;SDS011;65526;48.578;-4.520;2023-04-03T10:51:38;9.18;;;1.80;;
76631;SDS011;65526;48.578;-4.520;2023-04-03T10:56:44;8.55;;;1.40;;
76631;SDS011;65526;48.578;-4.520;2023-04-03T10:59:26;9.38;;;1.58;;
76631;SDS011;65526;48.578;-4.520;2023-04-03T11:02:05;8.77;;;1.85;;
76631;SDS011;65526;48.578;-4.520;2023-04-03T11:04:35;12.52;;;1.73;;
76631;SDS011;65526;48.578;-4.520;2023-04-03T11:07:10;4.22;;;1.30;;
76631;SDS011;65526;48.578;-4.520;2023-04-03T11:09:44;4.53;;;1.83;;
76631;SDS011;65526;48.578;-4.520;2023-04-03T11:12:20;6.80;;;1.83;;
76631;SDS011;65526;48.578;-4.520;2023-04-03T11:14:52;9.68;;;1.73;;
76631;SDS011;65526;48.578;-4.520;2023-04-03T11:17:23;6.40;;;1.15;;
76631;SDS011;65526;48.578;-4.520;2023-04-03T11:26:01;5.13;;;1.67;;
76631;SDS011;65526;48.578;-4.520;2023-04-03T11:28:41;11.45;;;1.65;;
76631;SDS011;65526;48.578;-4.520;2023-04-03T11:36:41;9.60;;;1.50;;
76631;SDS011;65526;48.578;-4.520;2023-04-03T11:39:20;7.07;;;1.42;;
76631;SDS011;65526;48.578;-4.520;2023-04-03T11:41:51;5.55;;;1.45;;
76631;SDS011;65526;48.578;-4.520;2023-04-03T11:44:27;5.60;;;1.30;;
76631;SDS011;65526;48.578;-4.520;2023-04-03T11:46:58;5.80;;;1.13;;
76631;SDS011;65526;48.578;-4.520;2023-04-03T12:05:55;9.65;;;1.92;;
76631;SDS011;65526;48.578;-4.520;2023-04-03T12:08:38;7.43;;;2.30;;
76631;SDS011;65526;48.578;-4.520;2023-04-03T12:18:59;5.85;;;2.42;;
76631;SDS011;65526;48.578;-4.520;2023-04-03T12:24:00;3.65;;;2.65;;
76631;SDS011;65526;48.578;-4.520;2023-04-03T12:46:52;6.68;;;3.13;;
76631;SDS011;65526;48.578;-4.520;2023-04-03T12:49:26;6.90;;;3.20;;
76631;SDS011;65526;48.578;-4.520;2023-04-03T12:52:04;6.50;;;3.28;;
76631;SDS011;65526;48.578;-4.520;2023-04-03T12:54:43;8.45;;;2.85;;
76631;SDS011;65526;48.578;-4.520;2023-04-03T12:59:46;8.23;;;3.42;;
76631;SDS011;65526;48.578;-4.520;2023-04-03T13:02:20;6.82;;;3.35;;
76631;SDS011;65526;48.578;-4.520;2023-04-03T13:04:52;9.18;;;4.03;;
76631;SDS011;65526;48.578;-4.520;2023-04-03T13:07:28;11.38;;;3.90;;
76631;SDS011;65526;48.578;-4.520;2023-04-03T13:10:00;7.82;;;4.50;;
76631;SDS011;65526;48.578;-4.520;2023-04-03T13:12:52;12.65;;;4.60;;
76631;SDS011;65526;48.578;-4.520;2023-04-03T13:15:26;9.05;;;4.57;;
76631;SDS011;65526;48.578;-4.520;2023-04-03T13:17:55;7.18;;;5.00;;
76631;SDS011;65526;48.578;-4.520;2023-04-03T13:20:27;11.15;;;4.95;;
76631;SDS011;65526;48.578;-4.520;2023-04-03T13:23:05;6.20;;;4.57;;
76631;SDS011;65526;48.578;-4.520;2023-04-03T13:25:35;11.43;;;5.70;;
76631;SDS011;65526;48.578;-4.520;2023-04-03T13:28:06;9.50;;;5.88;;
76631;SDS011;65526;48.578;-4.520;2023-04-03T13:30:39;11.65;;;6.13;;
76631;SDS011;65526;48.578;-4.520;2023-04-03T13:33:24;10.02;;;6.40;;
76631;SDS011;65526;48.578;-4.520;2023-04-03T13:35:57;13.63;;;6.80;;
76631;SDS011;65526;48.578;-4.520;2023-04-03T13:38:29;11.27;;;7.15;;
76631;SDS011;65526;48.578;-4.520;2023-04-03T13:41:45;12.30;;;6.78;;
76631;SDS011;65526;48.578;-4.520;2023-04-03T13:43:55;8.98;;;7.18;;
76631;SDS011;65526;48.578;-4.520;2023-04-03T13:46:24;11.82;;;7.72;;
76631;SDS011;65526;48.578;-4.520;2023-04-03T13:48:53;11.88;;;7.50;;
76631;SDS011;65526;48.578;-4.520;2023-04-03T13:53:55;12.20;;;8.50;;
76631;SDS011;65526;48.578;-4.520;2023-04-03T13:56:31;15.95;;;8.57;;
76631;SDS011;65526;48.578;-4.520;2023-04-03T14:01:50;14.65;;;8.95;;
76631;SDS011;65526;48.578;-4.520;2023-04-03T14:04:24;13.35;;;8.73;;
76631;SDS011;65526;48.578;-4.520;2023-04-03T14:06:54;17.15;;;9.38;;
76631;SDS011;65526;48.578;-4.520;2023-04-03T14:09:22;14.73;;;8.20;;
76631;SDS011;65526;48.578;-4.520;2023-04-03T14:11:52;18.27;;;10.07;;
76631;SDS011;65526;48.578;-4.520;2023-04-03T14:14:23;13.38;;;9.15;;
76631;SDS011;65526;48.578;-4.520;2023-04-03T14:16:54;13.98;;;9.48;;
76631;SDS011;65526;48.578;-4.520;2023-04-03T14:19:23;16.17;;;9.88;;
76631;SDS011;65526;48.578;-4.520;2023-04-03T14:21:53;17.50;;;10.00;;
76631;SDS011;65526;48.578;-4.520;2023-04-03T14:24:21;20.38;;;10.90;;
76631;SDS011;65526;48.578;-4.520;2023-04-03T14:26:49;19.75;;;10.85;;
76631;SDS011;65526;48.578;-4.520;2023-04-03T14:29:18;16.85;;;10.38;;
76631;SDS011;65526;48.578;-4.520;2023-04-03T14:31:46;18.58;;;10.60;;
76631;SDS011;65526;48.578;-4.520;2023-04-03T14:34:14;14.95;;;9.82;;
76631;SDS011;65526;48.578;-4.520;2023-04-03T14:36:42;19.08;;;11.73;;
76631;SDS011;65526;48.578;-4.520;2023-04-03T14:39:17;17.88;;;11.15;;
76631;SDS011;65526;48.578;-4.520;2023-04-03T14:41:44;18.98;;;11.10;;
76631;SDS011;65526;48.578;-4.520;2023-04-03T14:44:11;21.05;;;10.77;;
76631;SDS011;65526;48.578;-4.520;2023-04-03T14:46:39;16.38;;;10.25;;
76631;SDS011;65526;48.578;-4.520;2023-04-03T14:49:15;18.42;;;11.50;;
76631;SDS011;65526;48.578;-4.520;2023-04-03T14:51:44;16.25;;;10.25;;
76631;SDS011;65526;48.578;-4.520;2023-04-03T14:54:12;18.83;;;11.75;;
76631;SDS011;65526;48.578;-4.520;2023-04-03T14:56:41;19.63;;;11.52;;
76631;SDS011;65526;48.578;-4.520;2023-04-03T14:59:11;19.58;;;11.65;;
76631;SDS011;65526;48.578;-4.520;2023-04-03T15:01:40;19.02;;;10.80;;
76631;SDS011;65526;48.578;-4.520;2023-04-03T15:04:10;20.30;;;12.40;;
76631;SDS011;65526;48.578;-4.520;2023-04-03T15:06:39;19.05;;;12.48;;
76631;SDS011;65526;48.578;-4.520;2023-04-03T15:09:10;19.48;;;12.23;;
76631;SDS011;65526;48.578;-4.520;2023-04-03T15:11:49;19.95;;;11.65;;
76631;SDS011;65526;48.578;-4.520;2023-04-03T15:14:17;19.25;;;11.30;;
76631;SDS011;65526;48.578;-4.520;2023-04-03T15:16:44;18.10;;;11.57;;
76631;SDS011;65526;48.578;-4.520;2023-04-03T15:19:10;19.15;;;11.32;;
76631;SDS011;65526;48.578;-4.520;2023-04-03T15:21:37;20.40;;;11.30;;
76631;SDS011;65526;48.578;-4.520;2023-04-03T15:24:04;17.67;;;12.10;;
76631;SDS011;65526;48.578;-4.520;2023-04-03T15:26:31;18.77;;;10.95;;
76631;SDS011;65526;48.578;-4.520;2023-04-03T15:28:58;21.02;;;13.13;;
76631;SDS011;65526;48.578;-4.520;2023-04-03T15:31:25;23.35;;;11.40;;
76631;SDS011;65526;48.578;-4.520;2023-04-03T15:33:51;21.88;;;11.57;;
76631;SDS011;65526;48.578;-4.520;2023-04-03T15:36:18;20.55;;;12.15;;
76631;SDS011;65526;48.578;-4.520;2023-04-03T15:38:44;18.98;;;11.35;;
76631;SDS011;65526;48.578;-4.520;2023-04-03T15:41:11;17.92;;;11.10;;
76631;SDS011;65526;48.578;-4.520;2023-04-03T15:43:38;20.60;;;11.18;;
76631;SDS011;65526;48.578;-4.520;2023-04-03T15:46:04;20.98;;;11.90;;
76631;SDS011;65526;48.578;-4.520;2023-04-03T15:48:31;18.95;;;11.02;;
76631;SDS011;65526;48.578;-4.520;2023-04-03T15:50:57;19.25;;;11.68;;
76631;SDS011;65526;48.578;-4.520;2023-04-03T15:53:24;18.80;;;11.65;;
76631;SDS011;65526;48.578;-4.520;2023-04-03T15:55:51;21.75;;;11.23;;
76631;SDS011;65526;48.578;-4.520;2023-04-03T15:58:17;16.10;;;10.95;;
76631;SDS011;65526;48.578;-4.520;2023-04-03T16:00:44;20.90;;;12.13;;
76631;SDS011;65526;48.578;-4.520;2023-04-03T16:03:11;18.40;;;11.55;;
76631;SDS011;65526;48.578;-4.520;2023-04-03T16:05:41;21.08;;;11.57;;
76631;SDS011;65526;48.578;-4.520;2023-04-03T16:08:08;20.58;;;12.82;;
76631;SDS011;65526;48.578;-4.520;2023-04-03T16:10:35;21.30;;;11.40;;
76631;SDS011;65526;48.578;-4.520;2023-04-03T16:13:02;21.65;;;12.38;;
76631;SDS011;65526;48.578;-4.520;2023-04-03T16:15:29;19.95;;;11.50;;
76631;SDS011;65526;48.578;-4.520;2023-04-03T16:17:57;16.52;;;11.40;;
76631;SDS011;65526;48.578;-4.520;2023-04-03T16:20:24;21.27;;;11.98;;
76631;SDS011;65526;48.578;-4.520;2023-04-03T16:22:51;21.73;;;12.52;;
76631;SDS011;65526;48.578;-4.520;2023-04-03T16:25:19;19.70;;;11.77;;
76631;SDS011;65526;48.578;-4.520;2023-04-03T16:27:46;23.00;;;12.15;;
76631;SDS011;65526;48.578;-4.520;2023-04-03T16:30:12;24.75;;;12.73;;
76631;SDS011;65526;48.578;-4.520;2023-04-03T16:32:39;21.60;;;12.23;;
76631;SDS011;65526;48.578;-4.520;2023-04-03T16:35:06;20.55;;;12.65;;
76631;SDS011;65526;48.578;-4.520;2023-04-03T16:37:36;23.25;;;11.77;;